TimeCST,TemperatureF,Dew PointF,Humidity,Sea Level PressureIn,VisibilityMPH,Wind Direction,Wind SpeedMPH,Gust SpeedMPH,PrecipitationIn,Events,Conditions,WindDirDegrees,DateUTC
12:55 AM,25.0,19.9,81,30.46,10.0,South,6.9,-,N/A,,Clear,190,2013-01-18 06:55:00
1:55 AM,26.1,21.9,84,30.46,10.0,SSW,8.1,-,N/A,,Clear,200,2013-01-18 07:55:00
2:55 AM,28.0,23.0,81,30.43,10.0,South,10.4,-,N/A,,Clear,190,2013-01-18 08:55:00
3:55 AM,28.0,23.0,81,30.41,10.0,SSW,9.2,-,N/A,,Clear,200,2013-01-18 09:55:00
4:55 AM,30.0,23.0,75,30.38,10.0,SSW,12.7,-,N/A,,Clear,200,2013-01-18 10:55:00
5:55 AM,32.0,24.1,73,30.36,10.0,SSW,15.0,24.2,N/A,,Clear,200,2013-01-18 11:55:00
6:55 AM,30.9,24.1,76,30.35,10.0,SSW,17.3,25.3,N/A,,Clear,200,2013-01-18 12:55:00
7:55 AM,32.0,24.1,73,30.33,10.0,SSW,15.0,21.9,N/A,,Clear,200,2013-01-18 13:55:00
8:55 AM,34.0,25.0,70,30.33,10.0,SSW,18.4,24.2,N/A,,Clear,210,2013-01-18 14:55:00
9:55 AM,37.9,26.1,62,30.30,10.0,SSW,20.7,27.6,N/A,,Clear,210,2013-01-18 15:55:00
10:55 AM,42.1,28.0,58,30.27,10.0,SSW,19.6,29.9,N/A,,Clear,210,2013-01-18 16:55:00
11:55 AM,46.0,28.9,51,30.19,10.0,SSW,17.3,31.1,N/A,,Clear,200,2013-01-18 17:55:00
12:55 PM,51.1,28.9,43,30.14,10.0,SW,15.0,25.3,N/A,,Clear,220,2013-01-18 18:55:00
1:55 PM,53.1,28.9,40,30.09,10.0,SSW,19.6,29.9,N/A,,Clear,210,2013-01-18 19:55:00
2:55 PM,53.1,28.9,40,30.06,10.0,SW,16.1,39.1,N/A,,Clear,220,2013-01-18 20:55:00
3:55 PM,52.0,28.9,41,30.05,10.0,SW,20.7,31.1,N/A,,Clear,220,2013-01-18 21:55:00
4:55 PM,50.0,28.9,44,30.04,10.0,SW,17.3,27.6,N/A,,Clear,220,2013-01-18 22:55:00
5:55 PM,48.9,28.9,46,30.04,10.0,SSW,15.0,29.9,N/A,,Clear,210,2013-01-18 23:55:00
6:55 PM,46.0,30.0,54,30.06,10.0,SSW,13.8,25.3,N/A,,Clear,210,2013-01-19 00:55:00
7:55 PM,46.0,30.0,54,30.05,10.0,SSW,18.4,27.6,N/A,,Clear,210,2013-01-19 01:55:00
8:55 PM,45.0,30.0,56,30.05,10.0,SSW,16.1,25.3,N/A,,Clear,210,2013-01-19 02:55:00
9:55 PM,44.1,30.0,58,30.05,10.0,SW,16.1,23.0,N/A,,Clear,220,2013-01-19 03:55:00
10:55 PM,43.0,30.0,60,30.04,10.0,SW,11.5,21.9,N/A,,Clear,220,2013-01-19 04:55:00
11:55 PM,42.1,28.9,60,30.02,10.0,SW,15.0,24.2,N/A,,Clear,220,2013-01-19 05:55:00